METAR AND TAF INFORMATION
METAR FOR VHHH
ADDS - METARS form results

(0116 UTC 23 August 2019)
Data provider http://aviationweather.gov/metar/data/
 
METAR text: VHHH 230112Z 04010KT 2400 TSRA FEW012 FEW015CB SCT022 28/26 Q1008 TEMPO 3000 -TSRA SHRA FEW010CB SCT025
Conditions at: VHHH (HONG KONG INTL , HK) observed 0112 UTC 23 August 2019
Temperature: 28.0°C (82°F)
Dewpoint: 26.0°C (79°F) [RH = 89%]
Pressure (altimeter): 29.76 inches Hg (1008.0 mb)
Winds: from the NE (40 degrees) at 12 MPH (10 knots; 5.1 m/s)
Visibility: 1.49 miles (2.40 km)
Ceiling: at least 12,000 feet AGL
Clouds: few clouds at 1200 feet AGL
few clouds at 1500 feet AGL
scattered clouds at 2200 feet AGL
Weather: TSRA  (rain associated with thunderstorm(s))

METAR text: VHHH 230110Z 04009KT 3900 1600W -TSRA FEW012 FEW015CB SCT022 29/26 Q1008 TEMPO 3000 -TSRA SHRA FEW010CB SCT025
Conditions at: VHHH (HONG KONG INTL , HK) observed 0110 UTC 23 August 2019
Temperature: 29.0°C (84°F)
Dewpoint: 26.0°C (79°F) [RH = 84%]
Pressure (altimeter): 29.76 inches Hg (1008.0 mb)
Winds: from the NE (40 degrees) at 10 MPH (9 knots; 4.6 m/s)
Visibility: 2.42 miles (3.89 km)
Ceiling: at least 12,000 feet AGL
Clouds: few clouds at 1200 feet AGL
few clouds at 1500 feet AGL
scattered clouds at 2200 feet AGL
Weather: -TSRA  (light rain associated with thunderstorm(s))

METAR text: VHHH 230102Z 05007KT 9000 -TSRA FEW012 FEW015CB SCT022 29/26 Q1008 TEMPO 3000 -TSRA SHRA FEW010CB SCT025
Conditions at: VHHH (HONG KONG INTL , HK) observed 0102 UTC 23 August 2019
Temperature: 29.0°C (84°F)
Dewpoint: 26.0°C (79°F) [RH = 84%]
Pressure (altimeter): 29.76 inches Hg (1008.0 mb)
Winds: from the NE (50 degrees) at 8 MPH (7 knots; 3.6 m/s)
Visibility: 6 miles ( 9 km)
Ceiling: at least 12,000 feet AGL
Clouds: few clouds at 1200 feet AGL
few clouds at 1500 feet AGL
scattered clouds at 2200 feet AGL
Weather: -TSRA  (light rain associated with thunderstorm(s))

METAR text: VHHH 230100Z 05006KT 9000 -SHRA FEW012 SCT022 29/26 Q1008 TEMPO 3000 -TSRA SHRA FEW010CB SCT025
Conditions at: VHHH (HONG KONG INTL , HK) observed 0100 UTC 23 August 2019
Temperature: 29.0°C (84°F)
Dewpoint: 26.0°C (79°F) [RH = 84%]
Pressure (altimeter): 29.76 inches Hg (1008.0 mb)
Winds: from the NE (50 degrees) at 7 MPH (6 knots; 3.1 m/s)
Visibility: 6 miles ( 9 km)
Ceiling: at least 12,000 feet AGL
Clouds: few clouds at 1200 feet AGL
scattered clouds at 2200 feet AGL
Weather: -SHRA  (light rain showers)

METAR text: VHHH 230030Z 02003KT 360V060 9999 FEW018 SCT030 29/25 Q1007 TEMPO 3000 -TSRA SHRA FEW010CB SCT025
Conditions at: VHHH (HONG KONG INTL , HK) observed 0030 UTC 23 August 2019
Temperature: 29.0°C (84°F)
Dewpoint: 25.0°C (77°F) [RH = 79%]
Pressure (altimeter): 29.73 inches Hg (1007.0 mb)
Winds: from the NNE (20 degrees) at 3 MPH (3 knots; 1.5 m/s)
Visibility: 6 or more miles (10+ km)
Ceiling: at least 12,000 feet AGL
Clouds: few clouds at 1800 feet AGL
scattered clouds at 3000 feet AGL
Weather: no significant weather observed at this time

Forecast for: AMD
Text: TAF AMD VHHH 230036Z 2300/2406 VRB05KT 9000 FEW020 SCT030 TX33/2306Z TX35/2406Z TN27/2322Z
Forecast period: 0000 to 2100 UTC 23 August 2019
Forecast type: FROM: standard forecast or significant change
Winds: variable direction winds at 6 MPH (5 knots; 2.6 m/s)
Visibility: 6 miles (9 km)
Ceiling: at least 12,000 feet AGL
Clouds: few clouds at 2000 feet AGL
scattered clouds at 3000 feet AGL
Weather: no significant weather forecast for this period
Text: TEMPO 2300/2306 3000 -TSRA SHRA FEW010CB SCT025
Forecast period: 0000 to 0600 UTC 23 August 2019
Forecast type: TEMPORARY: The following changes expected for less than half the time period
Visibility: 1.86 miles (2.99 km)
Ceiling: at least 12,000 feet AGL
Clouds: few clouds at 1000 feet AGL
scattered clouds at 2500 feet AGL
Weather: -TSRA SHRA  (light rain associated with thunderstorm(s), rain showers)
Text: TEMPO 2303/2310 26010KT
Forecast period: 0300 to 1000 UTC 23 August 2019
Forecast type: TEMPORARY: The following changes expected for less than half the time period
Winds: from the W (260 degrees) at 12 MPH (10 knots; 5.1 m/s)
Visibility: missing
Ceiling: unknown
Clouds: missing
Weather: no significant weather forecast for this period
Text: TEMPO 2310/2316 12010KT
Forecast period: 1000 to 1600 UTC 23 August 2019
Forecast type: TEMPORARY: The following changes expected for less than half the time period
Winds: from the ESE (120 degrees) at 12 MPH (10 knots; 5.1 m/s)
Visibility: missing
Ceiling: unknown
Clouds: missing
Weather: no significant weather forecast for this period
Text: BECMG 2321/2323 36010KT
Forecast period: 2100 UTC 23 August 2019 to 0600 UTC 24 August 2019
Forecast type: BECOMING: Conditions expected to become as follows by 2300 UTC 23 August 2019
Winds: from the N (360 degrees) at 12 MPH (10 knots; 5.1 m/s)
Visibility: 6 miles (9 km)
Ceiling: at least 12,000 feet AGL
Clouds: few clouds at 2000 feet AGL
scattered clouds at 3000 feet AGL
Weather: no significant weather forecast for this period

 AIRPORT MAP

 RUNWAY INFORMATION
Runway 07L Runway length 12467 ft Runway width 197 ft
Runway elevation 22 ft Runway displaced threshold 565 ft Runway heading 71
Runway 25R Runway length 12467 ft Runway width 197 ft
Runway elevation 23 ft Runway displaced threshold 580 ft Runway heading 251
Runway 07R Runway length 12467 ft Runway width 197 ft
Runway elevation 28 ft Runway displaced threshold 525 ft Runway heading 71
Runway 25L Runway length 12467 ft Runway width 197 ft
Runway elevation 27 ft Runway displaced threshold 0 ft Runway heading 251

 AIRPORT FREQUENCIES
Type AFIS Name FLIGHT SER Frequency 122.4 MHZ
Type APP Name APP Frequency 119.1 MHZ
Type APP Name Director Frequency 119.5 MHZ
Type ATIS-A Name Arrivel Frequency 128.2 MHZ
Type ATIS-D Name Departure Frequency 127.05 MHZ
Type CAC Name ZONE CON Frequency 120.6 MHZ
Type CLD Name CLNC DEL Frequency 129.9 MHZ
Type DEP Name DEP Frequency 123.8 MHZ
Type EMG Name Hong Kong Frequency 121.5 MHZ
Type GND Name GND North Frequency 121.6 MHZ
Type GND Name GND South Frequency 122.55 MHZ
Type RDR Name Radar Frequency 121.3 MHZ
Type RDR Name PRECISION Frequency 133.7 MHZ
Type TWR Name Tower Nort Frequency 118.2 MHZ
Type TWR Name TWR South Frequency 118.4 MHZ

 AIRPORT NEAR NAVIGATION AIDS
Type VOR-DME Name Cheung Chau Frequency 112300 KHZ
Type NDB Name Cape D Aguilar Frequency 338 KHZ
Type NDB Name Lam Chau Frequency 390 KHZ
Type VOR-DME Name Lung Kwu Chau Frequency 113200 KHZ
Type VOR-DME Name Siu Mo To Frequency 114800 KHZ
Type VOR-DME Name Tathong Point Frequency 115500 KHZ